sensor_id;sensor_type;location;lat;lon;timestamp;pressure;altitude;pressure_sealevel;temperature;humidity
58843;BME280;44614;54.356;10.100;2023-05-23T00:02:03;101101.41;;;14.63;82.84
58843;BME280;44614;54.356;10.100;2023-05-23T00:04:32;101108.13;;;14.67;82.44
58843;BME280;44614;54.356;10.100;2023-05-23T00:06:57;101093.19;;;14.68;82.27
58843;BME280;44614;54.356;10.100;2023-05-23T00:09:23;101098.84;;;14.73;82.28
58843;BME280;44614;54.356;10.100;2023-05-23T00:11:48;101094.38;;;14.72;82.58
58843;BME280;44614;54.356;10.100;2023-05-23T00:14:14;101109.91;;;14.73;82.63
58843;BME280;44614;54.356;10.100;2023-05-23T00:16:40;101099.91;;;14.72;82.76
58843;BME280;44614;54.356;10.100;2023-05-23T00:19:08;101097.66;;;14.69;82.95
58843;BME280;44614;54.356;10.100;2023-05-23T00:21:34;101090.22;;;14.70;83.04
58843;BME280;44614;54.356;10.100;2023-05-23T00:24:00;101092.13;;;14.69;83.40
58843;BME280;44614;54.356;10.100;2023-05-23T00:26:27;101086.13;;;14.60;84.19
58843;BME280;44614;54.356;10.100;2023-05-23T00:28:54;101072.31;;;14.49;85.09
58843;BME280;44614;54.356;10.100;2023-05-23T00:31:21;101064.88;;;14.37;86.44
58843;BME280;44614;54.356;10.100;2023-05-23T00:33:46;101067.66;;;14.26;88.40
58843;BME280;44614;54.356;10.100;2023-05-23T00:36:11;101055.78;;;14.13;89.65
58843;BME280;44614;54.356;10.100;2023-05-23T00:38:37;101062.25;;;14.07;89.09
58843;BME280;44614;54.356;10.100;2023-05-23T00:41:04;101062.53;;;14.06;89.35
58843;BME280;44614;54.356;10.100;2023-05-23T00:43:29;101062.53;;;14.06;89.00
58843;BME280;44614;54.356;10.100;2023-05-23T00:45:56;101030.47;;;13.93;88.00
58843;BME280;44614;54.356;10.100;2023-05-23T00:48:23;101059.50;;;14.07;87.93
58843;BME280;44614;54.356;10.100;2023-05-23T00:50:49;101076.44;;;14.11;88.29
58843;BME280;44614;54.356;10.100;2023-05-23T00:53:15;101069.97;;;14.05;88.01
58843;BME280;44614;54.356;10.100;2023-05-23T00:55:41;101087.84;;;14.14;88.01
58843;BME280;44614;54.356;10.100;2023-05-23T00:58:08;101087.38;;;14.18;86.65
58843;BME280;44614;54.356;10.100;2023-05-23T01:00:34;101092.53;;;14.26;85.89
58843;BME280;44614;54.356;10.100;2023-05-23T01:03:00;101093.50;;;14.31;85.75
58843;BME280;44614;54.356;10.100;2023-05-23T01:05:25;101089.16;;;14.35;85.79
58843;BME280;44614;54.356;10.100;2023-05-23T01:07:51;101059.50;;;14.19;85.42
58843;BME280;44614;54.356;10.100;2023-05-23T01:10:23;101077.63;;;14.38;85.29
58843;BME280;44614;54.356;10.100;2023-05-23T01:20:58;101062.94;;;14.38;85.69
58843;BME280;44614;54.356;10.100;2023-05-23T01:23:39;101046.66;;;14.25;86.37
58843;BME280;44614;54.356;10.100;2023-05-23T01:26:40;101059.00;;;14.34;86.58
58843;BME280;44614;54.356;10.100;2023-05-23T01:29:23;101055.41;;;14.33;86.64
58843;BME280;44614;54.356;10.100;2023-05-23T01:31:52;101051.22;;;14.31;86.56
58843;BME280;44614;54.356;10.100;2023-05-23T01:34:20;101046.66;;;14.25;87.26
58843;BME280;44614;54.356;10.100;2023-05-23T01:36:49;101052.19;;;14.13;87.82
58843;BME280;44614;54.356;10.100;2023-05-23T01:39:15;101050.63;;;14.05;88.78
58843;BME280;44614;54.356;10.100;2023-05-23T01:41:40;101045.22;;;13.99;89.14
58843;BME280;44614;54.356;10.100;2023-05-23T01:44:06;101040.53;;;13.99;89.45
58843;BME280;44614;54.356;10.100;2023-05-23T01:46:33;101038.50;;;13.95;89.50
58843;BME280;44614;54.356;10.100;2023-05-23T01:49:02;101041.03;;;13.84;90.08
58843;BME280;44614;54.356;10.100;2023-05-23T01:51:28;101040.44;;;13.82;90.43
58843;BME280;44614;54.356;10.100;2023-05-23T01:53:55;101036.00;;;13.81;90.42
58843;BME280;44614;54.356;10.100;2023-05-23T01:56:21;101042.59;;;13.80;90.23
58843;BME280;44614;54.356;10.100;2023-05-23T01:58:46;101011.28;;;13.63;90.75
58843;BME280;44614;54.356;10.100;2023-05-23T02:01:12;101035.50;;;13.84;89.98
58843;BME280;44614;54.356;10.100;2023-05-23T02:03:38;101028.94;;;13.85;89.49
58843;BME280;44614;54.356;10.100;2023-05-23T02:06:03;101033.25;;;13.81;89.68
58843;BME280;44614;54.356;10.100;2023-05-23T02:08:29;101036.47;;;13.78;89.76
58843;BME280;44614;54.356;10.100;2023-05-23T02:10:54;101038.16;;;13.79;89.45
58843;BME280;44614;54.356;10.100;2023-05-23T02:13:20;101041.53;;;13.81;89.13
58843;BME280;44614;54.356;10.100;2023-05-23T02:15:45;101032.75;;;13.84;88.69
58843;BME280;44614;54.356;10.100;2023-05-23T02:18:11;101034.44;;;13.85;88.52
58843;BME280;44614;54.356;10.100;2023-05-23T02:20:41;101033.09;;;13.88;87.68
58843;BME280;44614;54.356;10.100;2023-05-23T02:23:06;101036.22;;;13.92;87.71
58843;BME280;44614;54.356;10.100;2023-05-23T02:25:31;101037.69;;;13.94;87.51
58843;BME280;44614;54.356;10.100;2023-05-23T02:27:57;101042.38;;;13.94;87.70
58843;BME280;44614;54.356;10.100;2023-05-23T02:30:22;101038.50;;;13.95;87.79
58843;BME280;44614;54.356;10.100;2023-05-23T02:32:48;101039.00;;;13.92;88.09
58843;BME280;44614;54.356;10.100;2023-05-23T02:35:14;101035.66;;;13.89;88.01
58843;BME280;44614;54.356;10.100;2023-05-23T02:37:39;101033.94;;;13.88;88.36
58843;BME280;44614;54.356;10.100;2023-05-23T02:40:05;101033.72;;;13.90;88.08
58843;BME280;44614;54.356;10.100;2023-05-23T02:42:35;101033.47;;;13.92;87.84
58843;BME280;44614;54.356;10.100;2023-05-23T02:45:00;101023.25;;;13.92;88.04
58843;BME280;44614;54.356;10.100;2023-05-23T02:47:26;101023.25;;;13.92;88.00
58843;BME280;44614;54.356;10.100;2023-05-23T02:49:51;101022.78;;;13.83;89.19
58843;BME280;44614;54.356;10.100;2023-05-23T02:52:17;101022.69;;;13.78;89.66
58843;BME280;44614;54.356;10.100;2023-05-23T02:54:42;101023.53;;;13.79;89.55
58843;BME280;44614;54.356;10.100;2023-05-23T02:57:08;101000.81;;;13.65;89.31
58843;BME280;44614;54.356;10.100;2023-05-23T02:59:36;101026.63;;;13.82;89.27
58843;BME280;44614;54.356;10.100;2023-05-23T03:02:02;101020.88;;;13.84;89.34
58843;BME280;44614;54.356;10.100;2023-05-23T03:04:27;101024.25;;;13.86;89.21
58843;BME280;44614;54.356;10.100;2023-05-23T03:06:53;101028.94;;;13.85;88.95
58843;BME280;44614;54.356;10.100;2023-05-23T03:09:19;101031.91;;;13.84;89.38
58843;BME280;44614;54.356;10.100;2023-05-23T03:11:45;101022.53;;;13.85;89.24
58843;BME280;44614;54.356;10.100;2023-05-23T03:14:10;101026.75;;;13.87;89.40
58843;BME280;44614;54.356;10.100;2023-05-23T03:16:36;101023.75;;;13.89;89.42
58843;BME280;44614;54.356;10.100;2023-05-23T03:19:01;101032.03;;;13.89;89.40
58843;BME280;44614;54.356;10.100;2023-05-23T03:21:28;101031.44;;;13.87;89.95
58843;BME280;44614;54.356;10.100;2023-05-23T03:23:53;101026.16;;;13.85;90.14
58843;BME280;44614;54.356;10.100;2023-05-23T03:26:18;101039.97;;;13.85;90.33
58843;BME280;44614;54.356;10.100;2023-05-23T03:28:46;101035.28;;;13.86;90.01
58843;BME280;44614;54.356;10.100;2023-05-23T03:31:12;101034.66;;;13.84;90.42
58843;BME280;44614;54.356;10.100;2023-05-23T03:33:37;101031.06;;;13.83;90.62
58843;BME280;44614;54.356;10.100;2023-05-23T03:36:03;101037.69;;;13.82;90.54
58843;BME280;44614;54.356;10.100;2023-05-23T03:38:28;101032.75;;;13.84;90.77
58843;BME280;44614;54.356;10.100;2023-05-23T03:40:53;101033.00;;;13.83;90.92
58843;BME280;44614;54.356;10.100;2023-05-23T03:43:19;101036.94;;;13.87;90.91
58843;BME280;44614;54.356;10.100;2023-05-23T03:45:44;101008.75;;;13.73;90.84
58843;BME280;44614;54.356;10.100;2023-05-23T03:48:12;101031.69;;;13.85;90.82
58843;BME280;44614;54.356;10.100;2023-05-23T03:50:39;101033.84;;;13.83;91.16
58843;BME280;44614;54.356;10.100;2023-05-23T03:53:05;101034.66;;;13.84;91.19
58843;BME280;44614;54.356;10.100;2023-05-23T03:55:31;101021.94;;;13.83;90.92
58843;BME280;44614;54.356;10.100;2023-05-23T03:57:57;101018.22;;;13.77;91.06
58843;BME280;44614;54.356;10.100;2023-05-23T04:00:22;101031.19;;;13.88;91.07
58843;BME280;44614;54.356;10.100;2023-05-23T04:02:49;101030.13;;;13.89;92.96
58843;BME280;44614;54.356;10.100;2023-05-23T04:05:17;101033.09;;;13.88;94.93
58843;BME280;44614;54.356;10.100;2023-05-23T04:07:43;101031.06;;;13.83;92.82
58843;BME280;44614;54.356;10.100;2023-05-23T04:10:09;101043.31;;;13.87;91.60
58843;BME280;44614;54.356;10.100;2023-05-23T04:12:35;101033.00;;;13.83;91.50
58843;BME280;44614;54.356;10.100;2023-05-23T04:15:02;101031.53;;;13.80;91.47
58843;BME280;44614;54.356;10.100;2023-05-23T04:17:30;101035.13;;;13.81;91.71
58843;BME280;44614;54.356;10.100;2023-05-23T04:19:57;101011.75;;;13.72;91.68
58843;BME280;44614;54.356;10.100;2023-05-23T04:22:22;101039.59;;;13.82;91.61
58843;BME280;44614;54.356;10.100;2023-05-23T04:24:48;101040.66;;;13.81;91.58
58843;BME280;44614;54.356;10.100;2023-05-23T04:27:13;101036.34;;;13.61;93.19
58843;BME280;44614;54.356;10.100;2023-05-23T04:29:39;101041.63;;;13.63;93.20
58843;BME280;44614;54.356;10.100;2023-05-23T04:32:05;101024.69;;;13.48;93.23
58843;BME280;44614;54.356;10.100;2023-05-23T04:34:32;101043.19;;;13.59;93.32
58843;BME280;44614;54.356;10.100;2023-05-23T04:37:00;101054.44;;;13.57;93.37
58843;BME280;44614;54.356;10.100;2023-05-23T04:39:27;101055.28;;;13.58;93.49
58843;BME280;44614;54.356;10.100;2023-05-23T04:42:14;101052.66;;;13.51;94.46
58843;BME280;44614;54.356;10.100;2023-05-23T04:44:47;101052.03;;;13.49;94.07
58843;BME280;44614;54.356;10.100;2023-05-23T04:47:29;101058.03;;;13.46;94.32
58843;BME280;44614;54.356;10.100;2023-05-23T04:50:05;101055.72;;;13.43;94.16
58843;BME280;44614;54.356;10.100;2023-05-23T04:52:32;101057.66;;;13.43;94.31
58843;BME280;44614;54.356;10.100;2023-05-23T04:54:59;101062.34;;;13.42;94.37
58843;BME280;44614;54.356;10.100;2023-05-23T04:57:24;101053.47;;;13.40;94.55
58843;BME280;44614;54.356;10.100;2023-05-23T04:59:50;101055.97;;;13.41;94.64
58843;BME280;44614;54.356;10.100;2023-05-23T05:02:15;101052.97;;;13.43;94.43
58843;BME280;44614;54.356;10.100;2023-05-23T05:04:41;101054.44;;;13.46;94.53
58843;BME280;44614;54.356;10.100;2023-05-23T05:07:06;101056.09;;;13.47;94.87
58843;BME280;44614;54.356;10.100;2023-05-23T05:09:32;101063.53;;;13.46;94.36
58843;BME280;44614;54.356;10.100;2023-05-23T05:11:58;101065.13;;;13.54;94.38
58843;BME280;44614;54.356;10.100;2023-05-23T05:14:24;101045.44;;;13.50;94.39
58843;BME280;44614;54.356;10.100;2023-05-23T05:16:50;101057.56;;;13.61;94.02
58843;BME280;44614;54.356;10.100;2023-05-23T05:19:18;101049.75;;;13.58;93.87
58843;BME280;44614;54.356;10.100;2023-05-23T05:21:44;101036.47;;;13.55;94.17
58843;BME280;44614;54.356;10.100;2023-05-23T05:24:10;101060.59;;;13.71;94.26
58843;BME280;44614;54.356;10.100;2023-05-23T05:26:35;101057.59;;;13.73;94.13
58843;BME280;44614;54.356;10.100;2023-05-23T05:29:01;101048.00;;;13.63;94.11
58843;BME280;44614;54.356;10.100;2023-05-23T05:31:28;101040.66;;;13.69;94.36
58843;BME280;44614;54.356;10.100;2023-05-23T05:33:54;101058.31;;;13.68;94.90
58843;BME280;44614;54.356;10.100;2023-05-23T05:36:20;101055.44;;;13.63;95.16
58843;BME280;44614;54.356;10.100;2023-05-23T05:38:46;101069.97;;;13.70;94.62
58843;BME280;44614;54.356;10.100;2023-05-23T05:41:12;101073.31;;;13.72;94.71
58843;BME280;44614;54.356;10.100;2023-05-23T05:43:43;101078.25;;;13.70;95.02
58843;BME280;44614;54.356;10.100;2023-05-23T05:46:10;101061.88;;;13.57;94.95
58843;BME280;44614;54.356;10.100;2023-05-23T05:48:36;101058.75;;;13.53;95.02
58843;BME280;44614;54.356;10.100;2023-05-23T05:51:05;101073.66;;;13.64;94.99
58843;BME280;44614;54.356;10.100;2023-05-23T05:53:32;101062.59;;;13.52;95.17
58843;BME280;44614;54.356;10.100;2023-05-23T05:55:58;101089.00;;;13.60;95.36
58843;BME280;44614;54.356;10.100;2023-05-23T05:58:24;101100.63;;;13.62;95.94
58843;BME280;44614;54.356;10.100;2023-05-23T06:00:56;101102.81;;;13.60;96.27
58843;BME280;44614;54.356;10.100;2023-05-23T06:03:23;101111.81;;;13.55;96.70
58843;BME280;44614;54.356;10.100;2023-05-23T06:05:53;101118.38;;;13.54;96.65
58843;BME280;44614;54.356;10.100;2023-05-23T06:08:19;101122.47;;;13.52;97.07
58843;BME280;44614;54.356;10.100;2023-05-23T06:10:45;101116.34;;;13.50;97.81
58843;BME280;44614;54.356;10.100;2023-05-23T06:13:10;101120.41;;;13.47;97.74
58843;BME280;44614;54.356;10.100;2023-05-23T06:15:37;101128.53;;;13.42;100.00
58843;BME280;44614;54.356;10.100;2023-05-23T06:18:02;101115.19;;;13.27;99.56
58843;BME280;44614;54.356;10.100;2023-05-23T06:20:30;101126.97;;;13.34;98.70
58843;BME280;44614;54.356;10.100;2023-05-23T06:22:57;101135.84;;;13.36;98.16
58843;BME280;44614;54.356;10.100;2023-05-23T06:25:24;101133.09;;;13.36;97.85
58843;BME280;44614;54.356;10.100;2023-05-23T06:27:50;101137.53;;;13.37;97.84
58843;BME280;44614;54.356;10.100;2023-05-23T06:30:15;101136.22;;;13.40;97.27
58843;BME280;44614;54.356;10.100;2023-05-23T06:32:41;101145.47;;;13.46;97.14
58843;BME280;44614;54.356;10.100;2023-05-23T06:35:06;101144.63;;;13.45;97.25
58843;BME280;44614;54.356;10.100;2023-05-23T06:37:32;101148.84;;;13.48;97.01
58843;BME280;44614;54.356;10.100;2023-05-23T06:39:58;101149.44;;;13.50;96.60
58843;BME280;44614;54.356;10.100;2023-05-23T06:42:25;101148.50;;;13.56;96.42
58843;BME280;44614;54.356;10.100;2023-05-23T06:45:02;101152.94;;;13.57;96.25
58843;BME280;44614;54.356;10.100;2023-05-23T06:47:29;101162.69;;;13.59;96.14
58843;BME280;44614;54.356;10.100;2023-05-23T06:49:54;101142.88;;;13.51;96.40
58843;BME280;44614;54.356;10.100;2023-05-23T06:52:20;101165.19;;;13.61;96.38
58843;BME280;44614;54.356;10.100;2023-05-23T06:54:46;101169.63;;;13.62;96.39
58843;BME280;44614;54.356;10.100;2023-05-23T06:57:12;101171.09;;;13.64;96.35
58843;BME280;44614;54.356;10.100;2023-05-23T06:59:37;101165.94;;;13.68;96.38
58843;BME280;44614;54.356;10.100;2023-05-23T07:02:03;101172.28;;;13.69;96.30
58843;BME280;44614;54.356;10.100;2023-05-23T07:04:29;101177.09;;;13.73;96.12
58843;BME280;44614;54.356;10.100;2023-05-23T07:06:58;101177.47;;;13.77;95.67
58843;BME280;44614;54.356;10.100;2023-05-23T07:09:24;101179.75;;;13.80;95.97
58843;BME280;44614;54.356;10.100;2023-05-23T07:11:55;101183.72;;;13.84;95.55
58843;BME280;44614;54.356;10.100;2023-05-23T07:14:23;101190.72;;;13.86;95.16
58843;BME280;44614;54.356;10.100;2023-05-23T07:16:48;101187.94;;;13.86;95.34
58843;BME280;44614;54.356;10.100;2023-05-23T07:19:15;101181.81;;;13.84;95.04
58843;BME280;44614;54.356;10.100;2023-05-23T07:21:47;101192.84;;;13.84;95.33
58843;BME280;44614;54.356;10.100;2023-05-23T07:24:15;101173.41;;;13.79;95.36
58843;BME280;44614;54.356;10.100;2023-05-23T07:26:41;101179.03;;;13.73;95.99
58843;BME280;44614;54.356;10.100;2023-05-23T07:29:06;101180.34;;;13.70;96.47
58843;BME280;44614;54.356;10.100;2023-05-23T07:31:32;101192.69;;;13.68;96.52
58843;BME280;44614;54.356;10.100;2023-05-23T07:33:58;101189.56;;;13.64;97.26
58843;BME280;44614;54.356;10.100;2023-05-23T07:36:31;101173.22;;;13.51;97.32
58843;BME280;44614;54.356;10.100;2023-05-23T07:38:58;101201.69;;;13.63;97.60
58843;BME280;44614;54.356;10.100;2023-05-23T07:41:24;101204.66;;;13.61;98.17
58843;BME280;44614;54.356;10.100;2023-05-23T07:43:49;101210.69;;;13.58;98.74
58843;BME280;44614;54.356;10.100;2023-05-23T07:46:15;101212.81;;;13.56;98.95
58843;BME280;44614;54.356;10.100;2023-05-23T07:48:41;101221.34;;;13.55;99.61
58843;BME280;44614;54.356;10.100;2023-05-23T07:51:06;101214.72;;;13.56;99.87
58843;BME280;44614;54.356;10.100;2023-05-23T07:53:32;101226.22;;;13.53;100.00
58843;BME280;44614;54.356;10.100;2023-05-23T07:55:57;101221.19;;;13.50;100.00
58843;BME280;44614;54.356;10.100;2023-05-23T07:58:26;101218.16;;;13.39;100.00
58843;BME280;44614;54.356;10.100;2023-05-23T08:00:52;101229.69;;;13.48;100.00
58843;BME280;44614;54.356;10.100;2023-05-23T08:03:37;101225.09;;;13.42;100.00
58843;BME280;44614;54.356;10.100;2023-05-23T08:06:08;101222.41;;;13.35;100.00
58843;BME280;44614;54.356;10.100;2023-05-23T08:08:34;101226.44;;;13.39;100.00
58843;BME280;44614;54.356;10.100;2023-05-23T08:11:01;101227.03;;;13.41;100.00
58843;BME280;44614;54.356;10.100;2023-05-23T08:13:34;101234.22;;;13.43;100.00
58843;BME280;44614;54.356;10.100;2023-05-23T08:16:20;101234.22;;;13.43;100.00
58843;BME280;44614;54.356;10.100;2023-05-23T08:18:47;101238.44;;;13.45;100.00
58843;BME280;44614;54.356;10.100;2023-05-23T08:21:13;101229.53;;;13.43;100.00
58843;BME280;44614;54.356;10.100;2023-05-23T08:23:38;101238.06;;;13.41;100.00
58843;BME280;44614;54.356;10.100;2023-05-23T08:26:04;101245.63;;;13.46;100.00
58843;BME280;44614;54.356;10.100;2023-05-23T08:28:30;101254.53;;;13.48;100.00
58843;BME280;44614;54.356;10.100;2023-05-23T08:31:00;101221.53;;;13.23;100.00
58843;BME280;44614;54.356;10.100;2023-05-23T08:33:26;101268.34;;;13.30;100.00
58843;BME280;44614;54.356;10.100;2023-05-23T08:35:55;101260.78;;;13.18;100.00
58843;BME280;44614;54.356;10.100;2023-05-23T08:38:21;101238.66;;;12.88;100.00
58843;BME280;44614;54.356;10.100;2023-05-23T08:41:00;101278.56;;;12.86;100.00
58843;BME280;44614;54.356;10.100;2023-05-23T08:43:28;101270.06;;;12.62;100.00
58843;BME280;44614;54.356;10.100;2023-05-23T08:45:53;101282.41;;;12.60;100.00
58843;BME280;44614;54.356;10.100;2023-05-23T08:48:20;101275.94;;;12.48;100.00
58843;BME280;44614;54.356;10.100;2023-05-23T08:50:49;101287.88;;;12.41;100.00
58843;BME280;44614;54.356;10.100;2023-05-23T08:53:19;101235.25;;;12.00;100.00
58843;BME280;44614;54.356;10.100;2023-05-23T08:55:48;101290.50;;;12.30;100.00
58843;BME280;44614;54.356;10.100;2023-05-23T08:58:18;101301.97;;;12.27;100.00
58843;BME280;44614;54.356;10.100;2023-05-23T09:00:52;101294.81;;;12.19;100.00
58843;BME280;44614;54.356;10.100;2023-05-23T09:03:19;101293.97;;;12.18;100.00
58843;BME280;44614;54.356;10.100;2023-05-23T09:06:11;101300.75;;;12.16;100.00
58843;BME280;44614;54.356;10.100;2023-05-23T09:08:38;101291.94;;;12.07;100.00
58843;BME280;44614;54.356;10.100;2023-05-23T09:11:05;101310.53;;;12.12;100.00
58843;BME280;44614;54.356;10.100;2023-05-23T09:13:35;101318.19;;;12.10;100.00
58843;BME280;44614;54.356;10.100;2023-05-23T09:16:04;101324.13;;;12.07;100.00
58843;BME280;44614;54.356;10.100;2023-05-23T09:21:04;101331.31;;;12.08;100.00
58843;BME280;44614;54.356;10.100;2023-05-23T09:23:33;101337.66;;;12.08;100.00
58843;BME280;44614;54.356;10.100;2023-05-23T09:26:04;101343.81;;;12.04;100.00
58843;BME280;44614;54.356;10.100;2023-05-23T09:28:32;101338.97;;;12.06;100.00
58843;BME280;44614;54.356;10.100;2023-05-23T09:31:03;101325.00;;;12.01;100.00
58843;BME280;44614;54.356;10.100;2023-05-23T09:36:03;101348.19;;;12.18;100.00
58843;BME280;44614;54.356;10.100;2023-05-23T09:38:28;101342.25;;;12.21;100.00
58843;BME280;44614;54.356;10.100;2023-05-23T09:40:54;101339.50;;;12.21;100.00
58843;BME280;44614;54.356;10.100;2023-05-23T09:43:22;101328.28;;;12.16;100.00
58843;BME280;44614;54.356;10.100;2023-05-23T09:45:52;101346.44;;;12.24;100.00
58843;BME280;44614;54.356;10.100;2023-05-23T09:48:18;101347.28;;;12.24;100.00
58843;BME280;44614;54.356;10.100;2023-05-23T09:50:44;101333.78;;;12.16;100.00
58843;BME280;44614;54.356;10.100;2023-05-23T09:53:10;101337.84;;;12.13;100.00
58843;BME280;44614;54.356;10.100;2023-05-23T09:55:35;101340.38;;;12.15;100.00
58843;BME280;44614;54.356;10.100;2023-05-23T09:58:02;101346.50;;;12.17;100.00
58843;BME280;44614;54.356;10.100;2023-05-23T10:00:28;101344.09;;;12.27;100.00
58843;BME280;44614;54.356;10.100;2023-05-23T10:05:46;101345.13;;;12.33;100.00
58843;BME280;44614;54.356;10.100;2023-05-23T10:08:26;101352.09;;;12.35;100.00
58843;BME280;44614;54.356;10.100;2023-05-23T10:13:22;101357.84;;;12.34;100.00
58843;BME280;44614;54.356;10.100;2023-05-23T10:15:53;101274.34;;;11.70;100.00
58843;BME280;44614;54.356;10.100;2023-05-23T10:18:25;101339.41;;;12.03;100.00
58843;BME280;44614;54.356;10.100;2023-05-23T10:20:56;101371.63;;;12.27;100.00
58843;BME280;44614;54.356;10.100;2023-05-23T10:23:26;101372.06;;;12.24;100.00
58843;BME280;44614;54.356;10.100;2023-05-23T10:25:53;101371.63;;;12.27;100.00
58843;BME280;44614;54.356;10.100;2023-05-23T10:28:19;101380.88;;;12.39;100.00
58843;BME280;44614;54.356;10.100;2023-05-23T10:30:45;101368.41;;;12.37;100.00
58843;BME280;44614;54.356;10.100;2023-05-23T10:33:13;101364.94;;;12.48;100.00
58843;BME280;44614;54.356;10.100;2023-05-23T10:35:49;101373.06;;;12.68;99.25
58843;BME280;44614;54.356;10.100;2023-05-23T10:38:37;101372.00;;;12.94;98.92
58843;BME280;44614;54.356;10.100;2023-05-23T10:46:11;101357.56;;;12.92;97.27
58843;BME280;44614;54.356;10.100;2023-05-23T10:48:42;101384.75;;;13.13;97.40
58843;BME280;44614;54.356;10.100;2023-05-23T10:51:09;101389.41;;;13.13;96.69
58843;BME280;44614;54.356;10.100;2023-05-23T10:53:35;101390.22;;;12.95;94.99
58843;BME280;44614;54.356;10.100;2023-05-23T10:56:03;101386.63;;;12.95;96.56
58843;BME280;44614;54.356;10.100;2023-05-23T10:58:30;101395.19;;;13.05;97.24
58843;BME280;44614;54.356;10.100;2023-05-23T11:01:02;101380.13;;;13.07;95.91
58843;BME280;44614;54.356;10.100;2023-05-23T11:05:58;101353.53;;;12.95;94.91
58843;BME280;44614;54.356;10.100;2023-05-23T11:08:23;101393.63;;;13.40;94.85
58843;BME280;44614;54.356;10.100;2023-05-23T11:10:59;101401.09;;;13.58;94.03
58843;BME280;44614;54.356;10.100;2023-05-23T11:13:55;101401.97;;;13.52;90.61
58843;BME280;44614;54.356;10.100;2023-05-23T11:16:33;101391.31;;;13.37;90.46
58843;BME280;44614;54.356;10.100;2023-05-23T11:19:25;101397.63;;;13.63;89.94
58843;BME280;44614;54.356;10.100;2023-05-23T11:21:59;101399.50;;;13.81;89.95
58843;BME280;44614;54.356;10.100;2023-05-23T11:24:54;101410.34;;;14.01;88.98
58843;BME280;44614;54.356;10.100;2023-05-23T11:30:12;101414.50;;;14.22;86.80
58843;BME280;44614;54.356;10.100;2023-05-23T11:32:39;101403.31;;;14.47;86.68
58843;BME280;44614;54.356;10.100;2023-05-23T11:35:07;101394.34;;;14.51;85.49
58843;BME280;44614;54.356;10.100;2023-05-23T11:37:33;101396.78;;;14.59;86.20
58843;BME280;44614;54.356;10.100;2023-05-23T11:42:50;101400.56;;;14.89;84.42
58843;BME280;44614;54.356;10.100;2023-05-23T11:45:18;101403.94;;;15.02;83.27
58843;BME280;44614;54.356;10.100;2023-05-23T11:47:44;101410.56;;;15.01;78.69
58843;BME280;44614;54.356;10.100;2023-05-23T11:50:09;101412.22;;;14.91;82.09
58843;BME280;44614;54.356;10.100;2023-05-23T11:52:35;101403.81;;;14.85;82.85
58843;BME280;44614;54.356;10.100;2023-05-23T11:55:00;101407.41;;;14.86;83.08
58843;BME280;44614;54.356;10.100;2023-05-23T11:57:26;101409.94;;;14.99;80.19
58843;BME280;44614;54.356;10.100;2023-05-23T11:59:52;101421.38;;;15.03;80.55
58843;BME280;44614;54.356;10.100;2023-05-23T12:02:20;101411.19;;;15.03;79.22
58843;BME280;44614;54.356;10.100;2023-05-23T12:04:45;101411.19;;;15.15;80.47
58843;BME280;44614;54.356;10.100;2023-05-23T12:07:11;101419.97;;;15.35;78.90
58843;BME280;44614;54.356;10.100;2023-05-23T12:09:45;101417.09;;;15.30;78.45
58843;BME280;44614;54.356;10.100;2023-05-23T12:12:11;101423.09;;;15.39;78.88
58843;BME280;44614;54.356;10.100;2023-05-23T12:14:38;101417.31;;;15.41;78.88
58843;BME280;44614;54.356;10.100;2023-05-23T12:17:11;101415.00;;;15.26;78.83
58843;BME280;44614;54.356;10.100;2023-05-23T12:19:38;101416.81;;;15.20;79.63
58843;BME280;44614;54.356;10.100;2023-05-23T12:22:06;101414.41;;;15.12;78.90
58843;BME280;44614;54.356;10.100;2023-05-23T12:24:32;101420.31;;;15.04;77.97
58843;BME280;44614;54.356;10.100;2023-05-23T12:26:59;101425.47;;;14.89;78.54
58843;BME280;44614;54.356;10.100;2023-05-23T12:29:34;101427.13;;;14.90;79.25
58843;BME280;44614;54.356;10.100;2023-05-23T12:32:01;101420.06;;;14.94;78.42
58843;BME280;44614;54.356;10.100;2023-05-23T12:34:27;101414.63;;;14.99;75.65
58843;BME280;44614;54.356;10.100;2023-05-23T12:36:56;101429.56;;;14.98;76.57
58843;BME280;44614;54.356;10.100;2023-05-23T12:39:27;101423.91;;;15.04;76.47
58843;BME280;44614;54.356;10.100;2023-05-23T12:41:53;101415.84;;;15.03;76.94
58843;BME280;44614;54.356;10.100;2023-05-23T12:44:21;101408.72;;;14.95;76.76
58843;BME280;44614;54.356;10.100;2023-05-23T12:46:46;101424.28;;;15.08;73.33
58843;BME280;44614;54.356;10.100;2023-05-23T12:49:12;101414.13;;;14.78;74.92
58843;BME280;44614;54.356;10.100;2023-05-23T12:51:39;101432.66;;;14.90;75.36
58843;BME280;44614;54.356;10.100;2023-05-23T12:54:04;101445.44;;;15.02;75.55
58843;BME280;44614;54.356;10.100;2023-05-23T12:56:30;101433.31;;;15.15;75.39
58843;BME280;44614;54.356;10.100;2023-05-23T12:58:55;101436.94;;;15.27;75.43
58843;BME280;44614;54.356;10.100;2023-05-23T13:01:21;101437.75;;;15.40;74.81
58843;BME280;44614;54.356;10.100;2023-05-23T13:03:46;101434.63;;;15.48;74.05
58843;BME280;44614;54.356;10.100;2023-05-23T13:06:12;101442.81;;;15.43;73.14
58843;BME280;44614;54.356;10.100;2023-05-23T13:08:37;101443.56;;;15.38;73.30
58843;BME280;44614;54.356;10.100;2023-05-23T13:11:03;101436.44;;;15.42;72.67
58843;BME280;44614;54.356;10.100;2023-05-23T13:13:29;101443.53;;;15.62;72.89